Station History

Weather Underground - logo

Station Historical Data
Daily Summary for January 27, 2018 Units:  Both    English   Metric
« Previous Day
Next Day »
Daily Weekly Monthly Yearly Custom
  High: Low: Average:
Temperature: TemperatureF °F /  -17.8 °C 33.2 °F /  0.7 °C 42 °F /  5.6 °C
Dew Point: DewpointF °F /  -17.8 °C 31.5 °F /  -0.3 °C 37.2 °F /  2.9 °C
Humidity: Humidity % 62 % 84 %
Wind Speed: WindSpeedMPH mph /  0 km/h - 1 mph /  1.6 km/h
Wind Gust: WindSpeedGustMPH mph /  0 km/h - -
Wind:- - South
Pressure: PressureIn in /  0 hPa 30.39 in /  1029 hPa -
Precipitation: 0.00 in /  0 mm    
Historical Graphs
 
 
Tabular Data for January 27, 2018
Time Temperature Dew Point Pressure Wind Wind Speed Wind Gust Humidity Rainfall Rate (Hourly)
TemperatureF °F /  -17.8 °C DewpointF °F /  -17.8 °C PressureIn in /  0 hPa Calm     Humidity % HourlyPrecipIn in /  0 mm
00:00 39.1 °F /  3.9 °C 36.4 °F /  2.4 °C 30.39 in /  1029 hPa Calm     90 % 0.00 in /  0 mm
00:05 39.0 °F /  3.9 °C 36.6 °F /  2.6 °C 30.39 in /  1029 hPa Calm     91 % 0.00 in /  0 mm
00:10 39.1 °F /  3.9 °C 36.7 °F /  2.6 °C 30.39 in /  1029 hPa Calm     91 % 0.00 in /  0 mm
00:15 38.5 °F /  3.6 °C 35.8 °F /  2.1 °C 30.39 in /  1029 hPa Calm     90 % 0.00 in /  0 mm
00:20 38.3 °F /  3.5 °C 35.6 °F /  2 °C 30.39 in /  1029 hPa Calm   0.4 mph /  0.6 km/h 90 % 0.00 in /  0 mm
00:25 38.1 °F /  3.4 °C 35.4 °F /  1.9 °C 30.39 in /  1029 hPa Calm   0.1 mph /  0.2 km/h 90 % 0.00 in /  0 mm
00:30 37.8 °F /  3.2 °C 35.1 °F /  1.7 °C 30.39 in /  1029 hPa Calm     90 % 0.00 in /  0 mm
00:36 37.8 °F /  3.2 °C 35.4 °F /  1.9 °C 30.39 in /  1029 hPa Calm     91 % 0.00 in /  0 mm
00:41 37.8 °F /  3.2 °C 35.4 °F /  1.9 °C 30.39 in /  1029 hPa Calm     91 % 0.00 in /  0 mm
00:46 37.7 °F /  3.2 °C 35.3 °F /  1.8 °C 30.39 in /  1029 hPa Calm     91 % 0.00 in /  0 mm
00:51 38.0 °F /  3.3 °C 35.9 °F /  2.2 °C 30.39 in /  1029 hPa Calm     92 % 0.00 in /  0 mm
00:56 37.9 °F /  3.3 °C 35.8 °F /  2.1 °C 30.39 in /  1029 hPa Calm     92 % 0.00 in /  0 mm
01:01 37.9 °F /  3.3 °C 35.8 °F /  2.1 °C 30.39 in /  1029 hPa Calm     92 % 0.00 in /  0 mm
01:06 38.1 °F /  3.4 °C 36.3 °F /  2.4 °C 30.39 in /  1029 hPa Calm     93 % 0.00 in /  0 mm
01:11 38.1 °F /  3.4 °C 36.0 °F /  2.2 °C 30.39 in /  1029 hPa Calm     92 % 0.00 in /  0 mm
01:16 37.5 °F /  3.1 °C 35.1 °F /  1.7 °C 30.39 in /  1029 hPa Calm     91 % 0.00 in /  0 mm
01:21 36.7 °F /  2.6 °C 34.0 °F /  1.1 °C 30.39 in /  1029 hPa Calm     90 % 0.00 in /  0 mm
01:26 36.4 °F /  2.4 °C 34.0 °F /  1.1 °C 30.39 in /  1029 hPa Calm     91 % 0.00 in /  0 mm
01:31 36.1 °F /  2.3 °C 33.7 °F /  0.9 °C 30.39 in /  1029 hPa Calm     91 % 0.00 in /  0 mm
01:36 36.1 °F /  2.3 °C 34.0 °F /  1.1 °C 30.39 in /  1029 hPa Calm     92 % 0.00 in /  0 mm
01:41 36.0 °F /  2.2 °C 33.9 °F /  1.1 °C 30.39 in /  1029 hPa Calm     92 % 0.00 in /  0 mm
01:46 35.9 °F /  2.2 °C 33.8 °F /  1 °C 30.39 in /  1029 hPa Calm     92 % 0.00 in /  0 mm
01:51 36.0 °F /  2.2 °C 33.9 °F /  1.1 °C 30.39 in /  1029 hPa Calm     92 % 0.00 in /  0 mm
01:56 36.0 °F /  2.2 °C 33.9 °F /  1.1 °C 30.39 in /  1029 hPa Calm     92 % 0.00 in /  0 mm
02:01 36.1 °F /  2.3 °C 34.3 °F /  1.3 °C 30.39 in /  1029 hPa Calm     93 % 0.00 in /  0 mm
02:06 36.1 °F /  2.3 °C 34.3 °F /  1.3 °C 30.39 in /  1029 hPa Calm     93 % 0.00 in /  0 mm
02:11 36.0 °F /  2.2 °C 34.2 °F /  1.2 °C 30.39 in /  1029 hPa Calm     93 % 0.00 in /  0 mm
02:16 35.9 °F /  2.2 °C 34.1 °F /  1.2 °C 30.39 in /  1029 hPa Calm     93 % 0.00 in /  0 mm
02:21 35.8 °F /  2.1 °C 34.0 °F /  1.1 °C 30.39 in /  1029 hPa Calm     93 % 0.00 in /  0 mm
02:26 35.7 °F /  2.1 °C 33.9 °F /  1.1 °C 30.39 in /  1029 hPa Calm     93 % 0.00 in /  0 mm
02:31 35.7 °F /  2.1 °C 33.9 °F /  1.1 °C 30.39 in /  1029 hPa Calm     93 % 0.00 in /  0 mm
02:36 35.8 °F /  2.1 °C 34.0 °F /  1.1 °C 30.39 in /  1029 hPa Calm     93 % 0.00 in /  0 mm
02:41 36.1 °F /  2.3 °C 34.5 °F /  1.4 °C 30.39 in /  1029 hPa Calm     94 % 0.00 in /  0 mm
02:46 36.1 °F /  2.3 °C 34.5 °F /  1.4 °C 30.39 in /  1029 hPa Calm     94 % 0.00 in /  0 mm
02:51 35.7 °F /  2.1 °C 33.9 °F /  1.1 °C 30.39 in /  1029 hPa Calm     93 % 0.00 in /  0 mm
02:56 35.6 °F /  2 °C 33.8 °F /  1 °C 30.40 in /  1029.3 hPa Calm     93 % 0.00 in /  0 mm
03:01 35.7 °F /  2.1 °C 33.9 °F /  1.1 °C 30.40 in /  1029.3 hPa Calm     93 % 0.00 in /  0 mm
03:06 35.6 °F /  2 °C 33.8 °F /  1 °C 30.40 in /  1029.3 hPa Calm     93 % 0.00 in /  0 mm
03:11 35.3 °F /  1.8 °C 33.5 °F /  0.8 °C 30.40 in /  1029.3 hPa Calm     93 % 0.00 in /  0 mm
03:16 35.4 °F /  1.9 °C 33.6 °F /  0.9 °C 30.40 in /  1029.3 hPa Calm     93 % 0.00 in /  0 mm
03:21 35.6 °F /  2 °C 33.8 °F /  1 °C 30.40 in /  1029.3 hPa Calm     93 % 0.00 in /  0 mm
03:26 35.8 °F /  2.1 °C 34.2 °F /  1.2 °C 30.40 in /  1029.3 hPa Calm     94 % 0.00 in /  0 mm
03:31 35.8 °F /  2.1 °C 34.0 °F /  1.1 °C 30.40 in /  1029.3 hPa Calm     93 % 0.00 in /  0 mm
03:36 35.8 °F /  2.1 °C 34.0 °F /  1.1 °C 30.40 in /  1029.3 hPa Calm     93 % 0.00 in /  0 mm
03:41 35.6 °F /  2 °C 33.8 °F /  1 °C 30.40 in /  1029.3 hPa Calm     93 % 0.00 in /  0 mm
03:46 35.5 °F /  1.9 °C 33.7 °F /  0.9 °C 30.40 in /  1029.3 hPa Calm     93 % 0.00 in /  0 mm
03:51 35.4 °F /  1.9 °C 33.6 °F /  0.9 °C 30.40 in /  1029.3 hPa Calm     93 % 0.00 in /  0 mm
03:56 35.7 °F /  2.1 °C 34.1 °F /  1.2 °C 30.40 in /  1029.3 hPa Calm     94 % 0.00 in /  0 mm
04:01 35.8 °F /  2.1 °C 34.0 °F /  1.1 °C 30.40 in /  1029.3 hPa Calm     93 % 0.00 in /  0 mm
04:06 35.6 °F /  2 °C 33.8 °F /  1 °C 30.40 in /  1029.3 hPa Calm     93 % 0.00 in /  0 mm
04:11 35.5 °F /  1.9 °C 33.7 °F /  0.9 °C 30.40 in /  1029.3 hPa Calm     93 % 0.00 in /  0 mm
04:17 35.5 °F /  1.9 °C 33.7 °F /  0.9 °C 30.40 in /  1029.3 hPa Calm     93 % 0.00 in /  0 mm
04:21 35.5 °F /  1.9 °C 33.7 °F /  0.9 °C 30.40 in /  1029.3 hPa Calm     93 % 0.00 in /  0 mm
04:26 35.4 °F /  1.9 °C 33.6 °F /  0.9 °C 30.40 in /  1029.3 hPa Calm     93 % 0.00 in /  0 mm
04:32 35.0 °F /  1.7 °C 32.9 °F /  0.5 °C 30.40 in /  1029.3 hPa Calm     92 % 0.00 in /  0 mm
04:37 34.8 °F /  1.6 °C 33.0 °F /  0.6 °C 30.40 in /  1029.3 hPa Calm     93 % 0.00 in /  0 mm
04:42 34.9 °F /  1.6 °C 33.1 °F /  0.6 °C 30.40 in /  1029.3 hPa Calm     93 % 0.00 in /  0 mm
04:47 34.9 °F /  1.6 °C 33.1 °F /  0.6 °C 30.40 in /  1029.3 hPa Calm     93 % 0.00 in /  0 mm
04:52 35.0 °F /  1.7 °C 33.2 °F /  0.7 °C 30.40 in /  1029.3 hPa Calm     93 % 0.00 in /  0 mm
04:57 34.7 °F /  1.5 °C 32.9 °F /  0.5 °C 30.40 in /  1029.3 hPa Calm     93 % 0.00 in /  0 mm
05:02 34.3 °F /  1.3 °C 32.2 °F /  0.1 °C 30.40 in /  1029.3 hPa Calm     92 % 0.00 in /  0 mm
05:07 34.1 °F /  1.2 °C 32.3 °F /  0.2 °C 30.40 in /  1029.3 hPa Calm     93 % 0.00 in /  0 mm
05:12 34.0 °F /  1.1 °C 32.2 °F /  0.1 °C 30.40 in /  1029.3 hPa Calm     93 % 0.00 in /  0 mm
05:17 33.8 °F /  1 °C 32.0 °F /  0 °C 30.40 in /  1029.3 hPa Calm     93 % 0.00 in /  0 mm
05:22 33.7 °F /  0.9 °C 31.9 °F /  -0.1 °C 30.41 in /  1029.7 hPa Calm     93 % 0.00 in /  0 mm
05:27 33.6 °F /  0.9 °C 31.8 °F /  -0.1 °C 30.40 in /  1029.3 hPa Calm     93 % 0.00 in /  0 mm
05:32 33.5 °F /  0.8 °C 31.7 °F /  -0.2 °C 30.40 in /  1029.3 hPa Calm     93 % 0.00 in /  0 mm
05:37 33.4 °F /  0.8 °C 31.6 °F /  -0.2 °C 30.40 in /  1029.3 hPa Calm     93 % 0.00 in /  0 mm
05:42 33.3 °F /  0.7 °C 31.5 °F /  -0.3 °C 30.40 in /  1029.3 hPa Calm     93 % 0.00 in /  0 mm
05:47 33.4 °F /  0.8 °C 31.6 °F /  -0.2 °C 30.40 in /  1029.3 hPa Calm     93 % 0.00 in /  0 mm
05:52 33.5 °F /  0.8 °C 31.7 °F /  -0.2 °C 30.40 in /  1029.3 hPa Calm     93 % 0.00 in /  0 mm
05:57 33.5 °F /  0.8 °C 32.0 °F /  0 °C 30.41 in /  1029.7 hPa Calm     94 % 0.00 in /  0 mm
06:02 33.7 °F /  0.9 °C 32.2 °F /  0.1 °C 30.41 in /  1029.7 hPa Calm     94 % 0.00 in /  0 mm
06:07 33.6 °F /  0.9 °C 32.1 °F /  0.1 °C 30.41 in /  1029.7 hPa Calm     94 % 0.00 in /  0 mm
06:12 33.7 °F /  0.9 °C 32.2 °F /  0.1 °C 30.42 in /  1030 hPa Calm     94 % 0.00 in /  0 mm
06:17 33.6 °F /  0.9 °C 32.1 °F /  0.1 °C 30.42 in /  1030 hPa Calm     94 % 0.00 in /  0 mm
06:22 33.5 °F /  0.8 °C 32.0 °F /  0 °C 30.43 in /  1030.4 hPa Calm     94 % 0.00 in /  0 mm
06:27 33.5 °F /  0.8 °C 32.0 °F /  0 °C 30.43 in /  1030.4 hPa Calm     94 % 0.00 in /  0 mm
06:32 33.6 °F /  0.9 °C 32.1 °F /  0.1 °C 30.43 in /  1030.4 hPa Calm     94 % 0.00 in /  0 mm
06:37 33.6 °F /  0.9 °C 32.1 °F /  0.1 °C 30.44 in /  1030.7 hPa Calm     94 % 0.00 in /  0 mm
06:42 33.5 °F /  0.8 °C 32.0 °F /  0 °C 30.44 in /  1030.7 hPa Calm     94 % 0.00 in /  0 mm
06:47 33.3 °F /  0.7 °C 31.8 °F /  -0.1 °C 30.44 in /  1030.7 hPa Calm     94 % 0.00 in /  0 mm
06:52 33.3 °F /  0.7 °C 31.8 °F /  -0.1 °C 30.44 in /  1030.7 hPa Calm     94 % 0.00 in /  0 mm
06:57 33.2 °F /  0.7 °C 31.7 °F /  -0.2 °C 30.44 in /  1030.7 hPa Calm     94 % 0.00 in /  0 mm
07:02 33.2 °F /  0.7 °C 31.7 °F /  -0.2 °C 30.45 in /  1031 hPa Calm     94 % 0.00 in /  0 mm
07:07 33.2 °F /  0.7 °C 31.7 °F /  -0.2 °C 30.45 in /  1031 hPa Calm     94 % 0.00 in /  0 mm
07:12 33.2 °F /  0.7 °C 31.7 °F /  -0.2 °C 30.45 in /  1031 hPa Calm     94 % 0.00 in /  0 mm
07:17 33.2 °F /  0.7 °C 31.7 °F /  -0.2 °C 30.46 in /  1031.4 hPa Calm     94 % 0.00 in /  0 mm
07:22 33.4 °F /  0.8 °C 31.9 °F /  -0.1 °C 30.46 in /  1031.4 hPa Calm     94 % 0.00 in /  0 mm
07:27 33.6 °F /  0.9 °C 32.1 °F /  0.1 °C 30.46 in /  1031.4 hPa Calm     94 % 0.00 in /  0 mm
07:32 34.0 °F /  1.1 °C 32.7 °F /  0.4 °C 30.46 in /  1031.4 hPa Calm     95 % 0.00 in /  0 mm
07:37 34.5 °F /  1.4 °C 33.2 °F /  0.7 °C 30.46 in /  1031.4 hPa Calm     95 % 0.00 in /  0 mm
07:42 35.0 °F /  1.7 °C 33.7 °F /  0.9 °C 30.46 in /  1031.4 hPa Calm     95 % 0.00 in /  0 mm
07:47 35.4 °F /  1.9 °C 34.1 °F /  1.2 °C 30.46 in /  1031.4 hPa Calm     95 % 0.00 in /  0 mm
07:52 35.9 °F /  2.2 °C 34.6 °F /  1.4 °C 30.46 in /  1031.4 hPa Calm     95 % 0.00 in /  0 mm
07:57 36.8 °F /  2.7 °C 35.5 °F /  1.9 °C 30.46 in /  1031.4 hPa Calm     95 % 0.00 in /  0 mm
08:02 38.3 °F /  3.5 °C 37.0 °F /  2.8 °C 30.46 in /  1031.4 hPa Calm   0.1 mph /  0.2 km/h 95 % 0.00 in /  0 mm
08:07 39.5 °F /  4.2 °C 38.2 °F /  3.4 °C 30.46 in /  1031.4 hPa ESE 1.2 mph /  1.9 km/h   95 % 0.00 in /  0 mm
08:12 40.3 °F /  4.6 °C 38.2 °F /  3.4 °C 30.46 in /  1031.4 hPa Calm     92 % 0.00 in /  0 mm
08:17 41.0 °F /  5 °C 38.6 °F /  3.7 °C 30.46 in /  1031.4 hPa SSE 1.2 mph /  1.9 km/h 1.2 mph /  1.9 km/h 91 % 0.00 in /  0 mm
08:22 41.4 °F /  5.2 °C 38.7 °F /  3.7 °C 30.46 in /  1031.4 hPa SE 1.2 mph /  1.9 km/h 1.2 mph /  1.9 km/h 90 % 0.00 in /  0 mm
08:27 41.5 °F /  5.3 °C 38.8 °F /  3.8 °C 30.46 in /  1031.4 hPa East 1.2 mph /  1.9 km/h 1.2 mph /  1.9 km/h 90 % 0.00 in /  0 mm
08:32 41.7 °F /  5.4 °C 39.0 °F /  3.9 °C 30.46 in /  1031.4 hPa ESE 2.3 mph /  3.7 km/h 2.3 mph /  3.7 km/h 90 % 0.00 in /  0 mm
08:37 42.1 °F /  5.6 °C 39.4 °F /  4.1 °C 30.46 in /  1031.4 hPa Calm     90 % 0.00 in /  0 mm
08:42 42.6 °F /  5.9 °C 39.6 °F /  4.2 °C 30.47 in /  1031.7 hPa East 1.2 mph /  1.9 km/h 1.2 mph /  1.9 km/h 89 % 0.00 in /  0 mm
08:47 43.3 °F /  6.3 °C 40.0 °F /  4.4 °C 30.47 in /  1031.7 hPa SE 1.2 mph /  1.9 km/h 1.2 mph /  1.9 km/h 88 % 0.00 in /  0 mm
08:52 44.1 °F /  6.7 °C 40.5 °F /  4.7 °C 30.47 in /  1031.7 hPa SSW 3.5 mph /  5.6 km/h 3.5 mph /  5.6 km/h 87 % 0.00 in /  0 mm
08:57 44.5 °F /  6.9 °C 40.3 °F /  4.6 °C 30.47 in /  1031.7 hPa SSE 2.3 mph /  3.7 km/h 2.3 mph /  3.7 km/h 85 % 0.00 in /  0 mm
09:02 44.7 °F /  7.1 °C 40.5 °F /  4.7 °C 30.47 in /  1031.7 hPa NE 1.2 mph /  1.9 km/h 1.2 mph /  1.9 km/h 85 % 0.00 in /  0 mm
09:07 45.1 °F /  7.3 °C 40.9 °F /  4.9 °C 30.47 in /  1031.7 hPa Calm     85 % 0.00 in /  0 mm
09:12 45.6 °F /  7.6 °C 40.7 °F /  4.8 °C 30.47 in /  1031.7 hPa SSE 2.3 mph /  3.7 km/h 2.3 mph /  3.7 km/h 83 % 0.00 in /  0 mm
09:17 46.1 °F /  7.8 °C 40.9 °F /  4.9 °C 30.47 in /  1031.7 hPa ENE 2.3 mph /  3.7 km/h 2.3 mph /  3.7 km/h 82 % 0.00 in /  0 mm
09:22 46.5 °F /  8.1 °C 41.0 °F /  5 °C 30.47 in /  1031.7 hPa East 2.3 mph /  3.7 km/h 2.3 mph /  3.7 km/h 81 % 0.00 in /  0 mm
09:27 46.9 °F /  8.3 °C 41.1 °F /  5.1 °C 30.48 in /  1032.1 hPa ESE 3.5 mph /  5.6 km/h 3.5 mph /  5.6 km/h 80 % 0.00 in /  0 mm
09:32 47.1 °F /  8.4 °C 41.2 °F /  5.1 °C 30.48 in /  1032.1 hPa SSE 2.3 mph /  3.7 km/h 2.3 mph /  3.7 km/h 80 % 0.00 in /  0 mm
09:37 47.7 °F /  8.7 °C 41.8 °F /  5.4 °C 30.48 in /  1032.1 hPa SE 3.5 mph /  5.6 km/h 3.5 mph /  5.6 km/h 80 % 0.00 in /  0 mm
09:42 48.3 °F /  9.1 °C 42.1 °F /  5.6 °C 30.48 in /  1032.1 hPa South 3.5 mph /  5.6 km/h 3.5 mph /  5.6 km/h 79 % 0.00 in /  0 mm
09:47 48.9 °F /  9.4 °C 42.0 °F /  5.6 °C 30.48 in /  1032.1 hPa SSE 2.3 mph /  3.7 km/h 2.3 mph /  3.7 km/h 77 % 0.00 in /  0 mm
09:52 49.4 °F /  9.7 °C 42.5 °F /  5.8 °C 30.48 in /  1032.1 hPa South 3.5 mph /  5.6 km/h 3.5 mph /  5.6 km/h 77 % 0.00 in /  0 mm
09:57 49.9 °F /  9.9 °C 43.0 °F /  6.1 °C 30.48 in /  1032.1 hPa Calm   0.2 mph /  0.3 km/h 77 % 0.00 in /  0 mm
10:02 50.3 °F /  10.2 °C 42.7 °F /  5.9 °C 30.49 in /  1032.4 hPa SSE 5.8 mph /  9.3 km/h 5.8 mph /  9.3 km/h 75 % 0.00 in /  0 mm
10:07 50.8 °F /  10.4 °C 42.8 °F /  6 °C 30.49 in /  1032.4 hPa SSW 2.3 mph /  3.7 km/h 2.3 mph /  3.7 km/h 74 % 0.00 in /  0 mm
10:12 51.0 °F /  10.6 °C 42.6 °F /  5.9 °C 30.49 in /  1032.4 hPa South 3.5 mph /  5.6 km/h 3.5 mph /  5.6 km/h 73 % 0.00 in /  0 mm
10:17 51.4 °F /  10.8 °C 43.0 °F /  6.1 °C 30.49 in /  1032.4 hPa SSE 3.5 mph /  5.6 km/h 3.5 mph /  5.6 km/h 73 % 0.00 in /  0 mm
10:22 51.4 °F /  10.8 °C 43.0 °F /  6.1 °C 30.49 in /  1032.4 hPa SSW 3.5 mph /  5.6 km/h   73 % 0.00 in /  0 mm
10:27 51.8 °F /  11 °C 43.4 °F /  6.3 °C 30.49 in /  1032.4 hPa SSW 2.0 mph /  3.2 km/h 2.0 mph /  3.2 km/h 73 % 0.00 in /  0 mm
10:32 52.1 °F /  11.2 °C 43.3 °F /  6.3 °C 30.49 in /  1032.4 hPa South 3.5 mph /  5.6 km/h 3.5 mph /  5.6 km/h 72 % 0.00 in /  0 mm
10:37 52.2 °F /  11.2 °C 43.4 °F /  6.3 °C 30.48 in /  1032.1 hPa ESE 3.5 mph /  5.6 km/h 3.5 mph /  5.6 km/h 72 % 0.00 in /  0 mm
10:42 52.5 °F /  11.4 °C 43.4 °F /  6.3 °C 30.48 in /  1032.1 hPa South 3.5 mph /  5.6 km/h 3.5 mph /  5.6 km/h 71 % 0.00 in /  0 mm
10:47 52.9 °F /  11.6 °C 43.4 °F /  6.3 °C 30.48 in /  1032.1 hPa SW 3.5 mph /  5.6 km/h 3.5 mph /  5.6 km/h 70 % 0.00 in /  0 mm
10:52 53.2 °F /  11.8 °C 43.3 °F /  6.3 °C 30.48 in /  1032.1 hPa East 3.5 mph /  5.6 km/h 3.5 mph /  5.6 km/h 69 % 0.00 in /  0 mm
10:57 53.4 °F /  11.9 °C 43.5 °F /  6.4 °C 30.47 in /  1031.7 hPa SE 3.5 mph /  5.6 km/h 3.5 mph /  5.6 km/h 69 % 0.00 in /  0 mm
11:02 53.6 °F /  12 °C 43.3 °F /  6.3 °C 30.47 in /  1031.7 hPa SSE 3.5 mph /  5.6 km/h 3.5 mph /  5.6 km/h 68 % 0.00 in /  0 mm
11:07 53.6 °F /  12 °C 43.3 °F /  6.3 °C 30.47 in /  1031.7 hPa SSE 2.3 mph /  3.7 km/h 2.3 mph /  3.7 km/h 68 % 0.00 in /  0 mm
11:12 54.0 °F /  12.2 °C 43.7 °F /  6.5 °C 30.47 in /  1031.7 hPa NE 3.5 mph /  5.6 km/h 3.5 mph /  5.6 km/h 68 % 0.00 in /  0 mm
11:17 54.4 °F /  12.4 °C 43.3 °F /  6.3 °C 30.47 in /  1031.7 hPa SSE 3.5 mph /  5.6 km/h 3.5 mph /  5.6 km/h 66 % 0.00 in /  0 mm
11:22 54.9 °F /  12.7 °C 43.7 °F /  6.5 °C 30.46 in /  1031.4 hPa SSE 4.6 mph /  7.4 km/h 4.6 mph /  7.4 km/h 66 % 0.00 in /  0 mm
11:27 55.3 °F /  12.9 °C 43.3 °F /  6.3 °C 30.46 in /  1031.4 hPa South 3.5 mph /  5.6 km/h 3.5 mph /  5.6 km/h 64 % 0.00 in /  0 mm
11:32 55.5 °F /  13.1 °C 43.5 °F /  6.4 °C 30.45 in /  1031 hPa East 2.3 mph /  3.7 km/h 2.3 mph /  3.7 km/h 64 % 0.00 in /  0 mm
11:37 55.8 °F /  13.2 °C 43.8 °F /  6.6 °C 30.46 in /  1031.4 hPa ESE 3.5 mph /  5.6 km/h 3.5 mph /  5.6 km/h 64 % 0.00 in /  0 mm
11:42 56.0 °F /  13.3 °C 44.4 °F /  6.9 °C 30.45 in /  1031 hPa SE 3.5 mph /  5.6 km/h 3.5 mph /  5.6 km/h 65 % 0.00 in /  0 mm
11:47 56.3 °F /  13.5 °C 43.9 °F /  6.6 °C 30.45 in /  1031 hPa East 2.3 mph /  3.7 km/h 2.3 mph /  3.7 km/h 63 % 0.00 in /  0 mm
11:52 56.5 °F /  13.6 °C 44.5 °F /  6.9 °C 30.45 in /  1031 hPa SE 3.5 mph /  5.6 km/h 3.5 mph /  5.6 km/h 64 % 0.00 in /  0 mm
11:57 56.7 °F /  13.7 °C 44.7 °F /  7.1 °C 30.45 in /  1031 hPa SSW 2.3 mph /  3.7 km/h 2.3 mph /  3.7 km/h 64 % 0.00 in /  0 mm
12:02 56.8 °F /  13.8 °C 44.3 °F /  6.8 °C 30.44 in /  1030.7 hPa SSE 2.3 mph /  3.7 km/h 2.3 mph /  3.7 km/h 63 % 0.00 in /  0 mm
12:07 56.4 °F /  13.6 °C 44.8 °F /  7.1 °C 30.44 in /  1030.7 hPa South 2.0 mph /  3.2 km/h 2.0 mph /  3.2 km/h 65 % 0.00 in /  0 mm
12:12 56.4 °F /  13.6 °C 44.0 °F /  6.7 °C 30.44 in /  1030.7 hPa NNW 1.2 mph /  1.9 km/h 1.2 mph /  1.9 km/h 63 % 0.00 in /  0 mm
12:17 56.7 °F /  13.7 °C 44.7 °F /  7.1 °C 30.44 in /  1030.7 hPa NNW 3.5 mph /  5.6 km/h 3.5 mph /  5.6 km/h 64 % 0.00 in /  0 mm
12:23 57.0 °F /  13.9 °C 44.1 °F /  6.7 °C 30.44 in /  1030.7 hPa WNW 3.5 mph /  5.6 km/h 3.5 mph /  5.6 km/h 62 % 0.00 in /  0 mm
12:28 57.0 °F /  13.9 °C 44.5 °F /  6.9 °C 30.44 in /  1030.7 hPa SSE 2.3 mph /  3.7 km/h 2.3 mph /  3.7 km/h 63 % 0.00 in /  0 mm
12:33 57.1 °F /  13.9 °C 45.0 °F /  7.2 °C 30.43 in /  1030.4 hPa SSW 2.3 mph /  3.7 km/h 2.3 mph /  3.7 km/h 64 % 0.00 in /  0 mm
12:38 57.2 °F /  14 °C 44.7 °F /  7.1 °C 30.43 in /  1030.4 hPa NNW 3.5 mph /  5.6 km/h 3.5 mph /  5.6 km/h 63 % 0.00 in /  0 mm
12:43 57.1 °F /  13.9 °C 45.0 °F /  7.2 °C 30.43 in /  1030.4 hPa NW 1.2 mph /  1.9 km/h 1.2 mph /  1.9 km/h 64 % 0.00 in /  0 mm
12:48 57.5 °F /  14.2 °C 44.6 °F /  7 °C 30.42 in /  1030 hPa WNW 1.2 mph /  1.9 km/h 1.2 mph /  1.9 km/h 62 % 0.00 in /  0 mm
12:53 57.4 °F /  14.1 °C 44.9 °F /  7.2 °C 30.42 in /  1030 hPa SE 1.2 mph /  1.9 km/h 1.2 mph /  1.9 km/h 63 % 0.00 in /  0 mm
12:58 57.8 °F /  14.3 °C 45.7 °F /  7.6 °C 30.42 in /  1030 hPa South 2.3 mph /  3.7 km/h 2.3 mph /  3.7 km/h 64 % 0.00 in /  0 mm
13:03 57.7 °F /  14.3 °C 46.0 °F /  7.8 °C 30.42 in /  1030 hPa NW 2.3 mph /  3.7 km/h 2.3 mph /  3.7 km/h 65 % 0.00 in /  0 mm
13:08 57.3 °F /  14.1 °C 45.2 °F /  7.3 °C 30.42 in /  1030 hPa SSE 1.2 mph /  1.9 km/h 1.2 mph /  1.9 km/h 64 % 0.00 in /  0 mm
13:13 57.2 °F /  14 °C 45.1 °F /  7.3 °C 30.41 in /  1029.7 hPa West 3.5 mph /  5.6 km/h 3.5 mph /  5.6 km/h 64 % 0.00 in /  0 mm
13:14 57.2 °F /  14 °C 45.1 °F /  7.3 °C 30.42 in /  1030 hPa WSW 2.3 mph /  3.7 km/h 2.3 mph /  3.7 km/h 64 % 0.00 in /  0 mm
13:18 57.2 °F /  14 °C 45.1 °F /  7.3 °C 30.42 in /  1030 hPa WSW 2.3 mph /  3.7 km/h 2.3 mph /  3.7 km/h 64 % 0.00 in /  0 mm
13:23 57.2 °F /  14 °C 45.1 °F /  7.3 °C 30.42 in /  1030 hPa WSW 2.3 mph /  3.7 km/h 2.3 mph /  3.7 km/h 64 % 0.00 in /  0 mm
14:11 57.2 °F /  14 °C 45.1 °F /  7.3 °C 30.42 in /  1030 hPa WSW 2.3 mph /  3.7 km/h 2.3 mph /  3.7 km/h 64 % 0.00 in /  0 mm
19:09 57.2 °F /  14 °C 45.1 °F /  7.3 °C 30.42 in /  1030 hPa WSW 2.3 mph /  3.7 km/h 2.3 mph /  3.7 km/h 64 % 0.00 in /  0 mm
23:11 57.2 °F /  14 °C 45.1 °F /  7.3 °C 30.42 in /  1030 hPa WSW 2.3 mph /  3.7 km/h 2.3 mph /  3.7 km/h 64 % 0.00 in /  0 mm
23:19 57.2 °F /  14 °C 45.1 °F /  7.3 °C 30.42 in /  1030 hPa WSW 2.3 mph /  3.7 km/h 2.3 mph /  3.7 km/h 64 % 0.00 in /  0 mm
Park Place, Exeter, Tulare County, California, USA
Compliments of Weather Underground - 2 mb